Time;durP1;ratioP1;P1;durP2;ratioP2;P2;SDS_P1;SDS_P2;PMS_P1;PMS_P2;Temp;Humidity;BMP_temperature;BMP_pressure;BME280_temperature;BME280_humidity;BME280_pressure;Samples;Min_cycle;Max_cycle;Signal;HPM_P1;HPM_P2
2021/04/16 00:03:41;;;;;;;6.37;5.77;;;4.40;69.10;;;;;;10513365;28;20193;-82
2021/04/16 00:08:42;;;;;;;5.67;5.17;;;4.40;69.10;;;;;;10514770;28;20749;-82
2021/04/16 00:13:45;;;;;;;5.90;5.30;;;4.40;69.30;;;;;;10516369;28;20193;-82
2021/04/16 00:18:47;;;;;;;7.10;6.17;;;4.30;69.20;;;;;;10515967;28;20742;-83
2021/04/16 00:23:49;;;;;;;5.47;5.00;;;4.30;69.40;;;;;;10519146;28;20199;-82
2021/04/16 00:28:51;;;;;;;5.27;4.80;;;4.20;70.00;;;;;;10518714;28;20212;-83
2021/04/16 00:33:54;;;;;;;5.20;4.80;;;4.20;69.80;;;;;;10526796;28;20211;-82
2021/04/16 00:38:56;;;;;;;5.03;4.63;;;4.10;70.10;;;;;;10533553;28;20711;-82
2021/04/16 00:43:57;;;;;;;7.10;6.40;;;4.10;70.40;;;;;;10503365;28;20799;-82
2021/04/16 00:49:03;;;;;;;5.43;5.03;;;4.10;70.10;;;;;;10511786;28;20204;-81
2021/04/16 00:54:17;;;;;;;5.30;4.90;;;4.00;70.30;;;;;;10496813;28;20268;-82
2021/04/16 00:59:22;;;;;;;5.70;5.30;;;3.90;70.20;;;;;;10495172;28;20235;-82
2021/04/16 01:04:26;;;;;;;5.97;4.80;;;3.80;70.40;;;;;;10513500;28;20196;-82
2021/04/16 01:09:28;;;;;;;5.93;5.43;;;3.70;71.00;;;;;;10517182;28;20232;-82
2021/04/16 01:14:31;;;;;;;5.87;5.33;;;3.70;71.10;;;;;;10502034;28;20264;-83
2021/04/16 01:19:40;;;;;;;5.70;5.20;;;3.70;71.20;;;;;;10517840;28;20278;-83
2021/04/16 01:24:43;;;;;;;5.60;5.20;;;3.60;71.40;;;;;;10515959;28;20556;-83
2021/04/16 01:29:46;;;;;;;5.53;5.13;;;3.60;71.90;;;;;;10499222;28;20216;-83
2021/04/16 01:34:48;;;;;;;5.77;5.27;;;3.70;71.80;;;;;;10500524;28;20204;-83
2021/04/16 01:39:53;;;;;;;4.50;4.20;;;3.70;71.50;;;;;;10500180;28;20247;-83
2021/04/16 01:44:54;;;;;;;4.80;4.40;;;3.70;71.70;;;;;;10517567;28;20196;-83
2021/04/16 01:49:56;;;;;;;4.87;4.57;;;3.70;72.40;;;;;;10500827;28;20698;-83
2021/04/16 01:54:59;;;;;;;5.30;4.90;;;3.70;71.70;;;;;;10510798;28;20569;-83
2021/04/16 02:00:06;;;;;;;5.20;4.80;;;3.70;71.60;;;;;;10492683;28;20657;-81
2021/04/16 02:05:14;;;;;;;4.93;4.53;;;3.70;71.10;;;;;;10511935;28;20303;-83
2021/04/16 02:10:18;;;;;;;5.10;4.70;;;3.60;71.10;;;;;;10512323;28;20260;-84
2021/04/16 02:15:19;;;;;;;4.77;4.37;;;3.60;71.40;;;;;;10514637;28;20680;-83
2021/04/16 02:20:23;;;;;;;4.50;4.20;;;3.50;72.20;;;;;;10503580;28;20196;-82
2021/04/16 02:25:26;;;;;;;5.10;4.70;;;3.50;72.50;;;;;;10521863;28;20204;-83
2021/04/16 02:30:31;;;;;;;5.30;4.80;;;3.40;72.40;;;;;;10506557;28;20185;-83
2021/04/16 02:35:32;;;;;;;4.60;4.20;;;3.40;72.60;;;;;;10523831;28;20285;-83
2021/04/16 02:40:35;;;;;;;5.30;4.90;;;3.50;72.80;;;;;;10524232;28;20216;-82
2021/04/16 02:45:36;;;;;;;5.20;4.70;;;3.50;72.60;;;;;;10497126;28;20224;-82
2021/04/16 02:50:38;;;;;;;5.00;4.60;;;3.50;72.70;;;;;;10513638;28;20196;-82
2021/04/16 02:55:41;;;;;;;4.77;4.37;;;3.50;72.40;;;;;;10517794;28;20243;-82
2021/04/16 03:00:42;;;;;;;5.73;5.33;;;3.50;72.70;;;;;;10505016;28;21017;-81
2021/04/16 03:05:44;;;;;;;5.33;4.83;;;3.50;73.00;;;;;;10503682;28;20243;-82
2021/04/16 03:10:49;;;;;;;5.00;4.60;;;3.50;72.80;;;;;;10506097;28;20667;-83
2021/04/16 03:15:51;;;;;;;5.60;5.10;;;3.50;73.10;;;;;;10503230;28;20213;-81
2021/04/16 03:20:53;;;;;;;6.90;5.03;;;3.50;73.20;;;;;;10532265;28;20265;-83
2021/04/16 03:25:56;;;;;;;6.20;5.20;;;3.50;73.10;;;;;;10527585;28;20222;-82
2021/04/16 03:30:58;;;;;;;5.53;5.13;;;3.50;73.30;;;;;;10508028;28;20627;-81
2021/04/16 03:35:59;;;;;;;5.80;5.30;;;3.40;73.30;;;;;;10501636;28;20724;-83
2021/04/16 03:41:02;;;;;;;5.37;4.87;;;3.40;73.10;;;;;;10485375;28;20283;-82
2021/04/16 03:46:04;;;;;;;5.40;5.00;;;3.40;73.30;;;;;;10484889;28;20212;-82
2021/04/16 03:51:07;;;;;;;5.57;5.20;;;3.40;73.50;;;;;;10501515;28;20287;-83
2021/04/16 03:56:12;;;;;;;5.70;5.30;;;3.30;73.70;;;;;;10501798;28;20252;-82
2021/04/16 04:01:16;;;;;;;6.27;5.80;;;3.30;73.40;;;;;;10492537;28;20192;-80
2021/04/16 04:06:17;;;;;;;5.60;5.10;;;3.30;73.80;;;;;;10511445;28;20307;-81
2021/04/16 04:11:20;;;;;;;5.63;5.13;;;3.20;74.00;;;;;;10503850;28;20204;-81
2021/04/16 04:16:22;;;;;;;5.70;5.30;;;3.20;73.90;;;;;;10502199;28;20220;-82
2021/04/16 04:21:24;;;;;;;5.30;4.87;;;3.20;74.20;;;;;;10485439;28;20648;-82
2021/04/16 04:26:26;;;;;;;5.77;5.30;;;3.20;74.30;;;;;;10501712;28;20280;-84
2021/04/16 04:31:28;;;;;;;6.70;6.10;;;3.10;74.40;;;;;;10502419;28;20287;-82
2021/04/16 04:36:30;;;;;;;8.93;6.47;;;3.10;74.30;;;;;;10503005;28;20696;-82
2021/04/16 04:41:32;;;;;;;8.50;6.80;;;3.10;74.60;;;;;;10504290;28;20188;-82
2021/04/16 04:46:34;;;;;;;7.73;7.03;;;3.00;74.80;;;;;;10503635;28;20299;-83
2021/04/16 04:51:37;;;;;;;6.80;6.20;;;3.10;74.80;;;;;;10512149;28;20544;-82
2021/04/16 04:56:40;;;;;;;5.07;4.73;;;3.10;75.00;;;;;;10483890;28;20301;-82
2021/04/16 05:01:41;;;;;;;5.20;4.80;;;3.10;75.10;;;;;;10501164;28;20184;-80
2021/04/16 05:06:43;;;;;;;5.87;5.40;;;3.20;75.70;;;;;;10497863;28;20287;-82
2021/04/16 05:11:46;;;;;;;5.50;5.00;;;3.20;75.40;;;;;;10504366;28;20196;-86
2021/04/16 05:16:47;;;;;;;6.03;5.50;;;3.30;75.70;;;;;;10501451;28;20220;-84
2021/04/16 05:21:51;;;;;;;7.37;5.70;;;3.30;74.90;;;;;;10485040;28;20193;-82
2021/04/16 05:26:53;;;;;;;6.13;5.63;;;3.40;75.10;;;;;;10502612;28;20212;-82
2021/04/16 05:31:55;;;;;;;5.70;4.93;;;3.50;75.20;;;;;;10502815;28;20188;-82
2021/04/16 05:36:58;;;;;;;6.00;5.40;;;3.60;75.20;;;;;;10485987;28;20275;-84
2021/04/16 05:42:02;;;;;;;5.87;5.40;;;3.80;74.80;;;;;;10485258;28;20642;-84
2021/04/16 05:47:04;;;;;;;6.00;5.50;;;4.00;74.90;;;;;;10502377;28;20209;-84
2021/04/16 05:52:07;;;;;;;5.87;5.37;;;4.10;74.40;;;;;;10487720;28;20208;-84
2021/04/16 05:57:09;;;;;;;5.70;5.20;;;4.30;74.10;;;;;;10495669;28;20319;-84
2021/04/16 06:02:29;;;;;;;5.93;5.43;;;4.60;74.10;;;;;;10516150;28;20204;-85
2021/04/16 06:07:31;;;;;;;6.77;6.03;;;4.80;73.30;;;;;;10515687;28;20209;-84
2021/04/16 06:12:37;;;;;;;7.00;6.30;;;5.00;72.40;;;;;;10522833;28;20192;-83
2021/04/16 06:17:39;;;;;;;5.37;4.97;;;5.30;72.20;;;;;;10556578;28;20219;-85
2021/04/16 06:22:41;;;;;;;6.27;5.67;;;5.50;72.10;;;;;;10566585;28;20222;-84
2021/04/16 06:27:44;;;;;;;5.80;5.30;;;5.80;70.80;;;;;;10543888;28;20216;-83
2021/04/16 06:32:46;;;;;;;6.23;5.67;;;6.00;69.80;;;;;;10544061;28;20188;-86
2021/04/16 06:37:48;;;;;;;6.70;5.80;;;6.20;70.20;;;;;;10538020;28;20322;-84
2021/04/16 06:42:51;;;;;;;6.97;6.27;;;6.40;69.60;;;;;;10536199;28;20211;-84
2021/04/16 06:47:58;;;;;;;6.47;5.87;;;6.60;69.10;;;;;;10509819;28;20223;-84
2021/04/16 06:53:04;;;;;;;5.90;5.40;;;6.60;67.50;;;;;;10510603;28;20227;-84
2021/04/16 06:58:12;;;;;;;5.70;5.30;;;6.40;68.90;;;;;;10495069;28;20258;-84
2021/04/16 07:03:24;;;;;;;6.33;5.83;;;6.40;70.30;;;;;;10497001;28;20547;-83
2021/04/16 07:08:31;;;;;;;4.97;4.67;;;6.50;71.10;;;;;;10511696;28;20312;-84
2021/04/16 07:13:37;;;;;;;5.90;5.50;;;6.70;70.80;;;;;;10496901;28;20218;-85
2021/04/16 07:19:09;;;;;;;5.90;5.50;;;6.90;71.00;;;;;;10512266;28;20314;-84
2021/04/16 07:24:13;;;;;;;6.70;6.20;;;7.00;70.70;;;;;;10495168;28;20196;-85
2021/04/16 07:29:41;;;;;;;7.33;6.73;;;7.20;70.20;;;;;;10500019;28;20623;-83
2021/04/16 07:34:47;;;;;;;6.30;5.87;;;7.30;69.00;;;;;;10509736;28;20271;-84
2021/04/16 07:40:01;;;;;;;6.00;5.50;;;7.20;69.50;;;;;;10518301;28;20216;-84
2021/04/16 07:45:21;;;;;;;6.73;6.23;;;7.30;69.60;;;;;;10514342;28;20200;-83
2021/04/16 07:50:30;;;;;;;6.50;6.00;;;7.60;70.40;;;;;;10523983;28;20600;-83
2021/04/16 07:55:33;;;;;;;7.10;6.50;;;7.90;69.10;;;;;;10540262;28;20234;-82
2021/04/16 08:00:39;;;;;;;6.10;5.70;;;8.10;68.80;;;;;;10530075;28;20283;-84
2021/04/16 08:05:44;;;;;;;6.60;6.10;;;8.10;67.70;;;;;;10525130;28;20616;-82
2021/04/16 08:10:52;;;;;;;6.70;6.10;;;8.20;68.00;;;;;;10498284;28;20197;-83
2021/04/16 08:15:58;;;;;;;6.90;6.30;;;8.40;67.80;;;;;;10480811;28;20233;-83
2021/04/16 08:21:03;;;;;;;6.23;5.73;;;8.50;67.50;;;;;;10505101;28;20185;-83
2021/04/16 08:26:09;;;;;;;5.93;5.53;;;8.70;67.00;;;;;;10504617;28;20900;-83
2021/04/16 08:31:16;;;;;;;6.27;5.77;;;8.80;66.40;;;;;;10533700;28;20267;-84
2021/04/16 08:36:24;;;;;;;6.60;6.00;;;8.70;67.30;;;;;;10495024;28;20232;-83
2021/04/16 08:41:28;;;;;;;6.47;5.97;;;8.80;67.60;;;;;;10492983;28;20745;-84
2021/04/16 08:46:37;;;;;;;6.03;5.63;;;8.90;66.60;;;;;;10542837;28;20454;-84
2021/04/16 08:51:43;;;;;;;6.07;5.47;;;8.90;67.10;;;;;;10541453;28;20198;-83
2021/04/16 08:56:53;;;;;;;6.53;5.80;;;8.80;66.60;;;;;;10543393;28;20215;-82
2021/04/16 09:02:05;;;;;;;6.00;5.60;;;8.90;65.10;;;;;;10547880;28;20267;-86
2021/04/16 09:07:18;;;;;;;5.23;4.93;;;8.80;64.30;;;;;;10522052;28;20308;-84
2021/04/16 09:13:00;;;;;;;5.37;4.97;;;8.70;65.80;;;;;;10541784;28;20221;-82
2021/04/16 09:18:30;;;;;;;5.83;5.40;;;8.90;66.60;;;;;;10412266;28;20225;-83
2021/04/16 09:24:04;;;;;;;5.80;5.30;;;9.10;65.80;;;;;;10490900;28;20200;-82
2021/04/16 09:29:06;;;;;;;5.20;4.80;;;9.40;65.10;;;;;;10512854;28;20211;-84
2021/04/16 09:34:16;;;;;;;5.20;4.80;;;9.80;64.30;;;;;;10521156;28;20196;-83
2021/04/16 09:39:36;;;;;;;5.27;4.87;;;10.00;61.90;;;;;;10505604;28;20223;-83
2021/04/16 09:44:54;;;;;;;5.73;5.33;;;10.20;61.50;;;;;;10499836;28;20691;-86
2021/04/16 09:49:59;;;;;;;5.80;5.40;;;10.60;59.90;;;;;;10495310;28;20211;-85
2021/04/16 09:55:01;;;;;;;6.10;5.60;;;10.80;58.80;;;;;;10514238;28;20295;-84
2021/04/16 10:00:25;;;;;;;5.30;4.90;;;10.80;59.00;;;;;;10510029;28;20284;-84
2021/04/16 10:05:34;;;;;;;5.80;4.80;;;10.80;58.00;;;;;;10514708;28;20309;-82
2021/04/16 10:10:37;;;;;;;5.60;5.20;;;10.80;57.90;;;;;;10527669;28;20192;-83
2021/04/16 10:15:41;;;;;;;5.47;4.97;;;10.90;57.50;;;;;;10535858;28;20279;-85
2021/04/16 10:20:57;;;;;;;5.77;5.37;;;11.10;57.60;;;;;;10534953;28;20203;-83
2021/04/16 12:42:02;;;;;;;4.93;4.57;;;9.40;60.30;;;;;;10542087;28;20215;-82
2021/04/16 12:47:08;;;;;;;5.30;4.90;;;9.50;60.20;;;;;;10520423;28;20748;-83
2021/04/16 12:52:11;;;;;;;4.90;4.60;;;9.60;60.40;;;;;;10504408;28;20197;-83
2021/04/16 12:57:17;;;;;;;5.10;4.60;;;9.70;59.90;;;;;;10518327;28;20239;-84
2021/04/16 13:02:25;;;;;;;5.57;5.10;;;9.90;59.50;;;;;;10506322;28;20192;-84
2021/04/16 13:07:27;;;;;;;4.80;4.40;;;10.10;59.00;;;;;;10506195;28;20216;-84
2021/04/16 13:12:29;;;;;;;4.90;4.57;;;10.30;58.70;;;;;;10522000;28;20287;-84
2021/04/16 13:17:34;;;;;;;5.40;4.87;;;10.30;57.90;;;;;;10537287;28;20218;-84
2021/04/16 13:22:36;;;;;;;4.97;4.57;;;10.30;57.90;;;;;;10541723;28;20212;-82
2021/04/16 13:27:41;;;;;;;4.60;4.30;;;10.30;57.90;;;;;;10522697;28;20230;-83
2021/04/16 13:32:46;;;;;;;4.60;4.30;;;10.20;57.70;;;;;;10538752;28;20203;-84
2021/04/16 13:37:48;;;;;;;4.17;3.93;;;10.30;57.90;;;;;;10522200;28;20219;-83
2021/04/16 13:42:49;;;;;;;4.40;4.10;;;10.40;57.00;;;;;;10539007;28;20201;-84
2021/04/16 13:47:52;;;;;;;3.87;3.67;;;10.40;57.60;;;;;;10518912;28;20215;-82
2021/04/16 13:52:57;;;;;;;4.23;3.83;;;10.50;56.50;;;;;;10536408;28;20199;-83
2021/04/16 13:57:59;;;;;;;4.13;3.83;;;10.60;55.90;;;;;;10537283;28;20242;-82
2021/04/16 14:03:33;;;;;;;3.40;3.20;;;10.60;55.80;;;;;;10535607;28;20286;-82
2021/04/16 14:08:38;;;;;;;4.30;4.07;;;10.50;56.10;;;;;;10535468;28;20242;-83
2021/04/16 14:13:40;;;;;;;3.83;3.60;;;10.60;54.80;;;;;;10540110;28;20204;-82
2021/04/16 14:18:45;;;;;;;3.67;3.47;;;10.40;55.60;;;;;;10535965;28;20224;-84
2021/04/16 14:23:49;;;;;;;3.50;3.23;;;10.30;55.80;;;;;;10547038;28;20286;-84
2021/04/16 14:28:50;;;;;;;3.03;2.73;;;10.10;55.10;;;;;;10549126;28;20215;-82
2021/04/16 14:33:53;;;;;;;3.00;2.90;;;10.00;55.80;;;;;;10515477;28;20200;-82
2021/04/16 14:38:55;;;;;;;2.97;2.77;;;9.90;55.40;;;;;;10553384;28;20224;-82
2021/04/16 14:43:56;;;;;;;3.33;3.13;;;9.90;56.80;;;;;;10534907;28;20224;-81
2021/04/16 14:49:00;;;;;;;3.23;3.03;;;10.00;56.20;;;;;;10523969;28;20277;-82
2021/04/16 14:54:12;;;;;;;3.30;3.10;;;10.20;55.20;;;;;;10522913;28;20194;-82
2021/04/16 14:59:21;;;;;;;2.60;2.40;;;10.40;55.30;;;;;;10545237;28;20222;-83
2021/04/16 15:04:25;;;;;;;3.30;3.10;;;10.50;54.70;;;;;;10550524;28;20196;-83
2021/04/16 15:09:35;;;;;;;3.30;3.00;;;10.50;54.80;;;;;;10549725;28;20212;-84
2021/04/16 15:14:37;;;;;;;3.50;3.30;;;10.40;54.80;;;;;;10548439;28;20199;-82
2021/04/16 15:19:41;;;;;;;2.97;2.80;;;10.30;55.30;;;;;;10545236;28;20227;-83
2021/04/16 15:24:45;;;;;;;3.50;3.20;;;10.20;54.90;;;;;;10547659;28;20199;-83
2021/04/16 15:29:50;;;;;;;2.53;2.43;;;10.10;54.80;;;;;;10549890;28;20208;-83
2021/04/16 15:50:40;;;;;;;3.37;3.17;;;9.80;57.30;;;;;;10544788;28;20275;-82
2021/04/16 15:55:42;;;;;;;3.13;2.93;;;9.70;57.50;;;;;;10545143;28;20688;-83
2021/04/16 16:00:46;;;;;;;3.40;3.20;;;9.60;58.50;;;;;;10531813;28;20219;-83
2021/04/16 16:05:52;;;;;;;3.20;3.00;;;9.50;58.00;;;;;;10550529;28;20215;-83
2021/04/16 16:10:56;;;;;;;4.40;4.10;;;9.50;58.70;;;;;;10551081;28;20180;-83
2021/04/16 16:16:05;;;;;;;4.30;4.00;;;9.40;59.60;;;;;;10549846;28;20264;-82
2021/04/16 16:28:03;;;;;;;3.70;3.50;;;9.30;61.20;;;;;;10544948;28;20618;-83
2021/04/16 16:33:11;;;;;;;4.20;3.90;;;9.20;62.10;;;;;;10505233;28;20195;-83
2021/04/16 16:38:14;;;;;;;3.90;3.63;;;9.10;61.50;;;;;;10519957;28;20318;-83
2021/04/16 16:43:24;;;;;;;3.60;3.40;;;9.10;62.70;;;;;;10530029;28;20196;-82
2021/04/16 16:48:25;;;;;;;4.00;3.70;;;9.10;62.70;;;;;;10507469;28;20292;-83
2021/04/16 16:53:29;;;;;;;3.83;3.63;;;9.10;62.40;;;;;;10533501;28;20228;-83
2021/04/16 16:58:35;;;;;;;3.63;3.40;;;9.10;63.30;;;;;;10496176;28;20307;-82
2021/04/16 17:03:37;;;;;;;4.50;4.20;;;9.10;62.80;;;;;;10505277;28;20259;-82
2021/04/16 17:08:39;;;;;;;4.20;3.90;;;9.00;63.30;;;;;;10505570;28;20220;-83
2021/04/16 17:13:45;;;;;;;3.83;3.53;;;9.00;63.10;;;;;;10509371;28;20207;-82
2021/04/16 17:18:47;;;;;;;3.83;3.53;;;8.90;64.10;;;;;;10534907;28;20232;-82
2021/04/16 17:23:49;;;;;;;4.10;3.80;;;8.90;64.20;;;;;;10496206;28;20196;-83
2021/04/16 17:28:52;;;;;;;4.20;3.80;;;8.90;64.30;;;;;;10509063;28;20223;-82
2021/04/16 17:33:54;;;;;;;4.20;3.90;;;8.90;64.70;;;;;;10520681;28;20574;-83
2021/04/16 17:38:55;;;;;;;4.37;4.07;;;8.90;64.40;;;;;;10488543;28;20224;-83
2021/04/16 17:43:58;;;;;;;4.20;3.90;;;8.90;64.20;;;;;;10494247;28;20299;-82
2021/04/16 17:49:01;;;;;;;4.60;4.30;;;8.90;64.30;;;;;;10504967;28;20293;-83
2021/04/16 17:54:05;;;;;;;3.63;3.43;;;8.90;63.60;;;;;;10545954;28;20200;-82
2021/04/16 17:59:12;;;;;;;4.83;4.33;;;8.80;63.50;;;;;;10560101;28;20287;-83
2021/04/16 18:04:14;;;;;;;4.20;3.90;;;8.70;64.40;;;;;;10507789;28;20203;-83
2021/04/16 18:09:19;;;;;;;4.30;4.00;;;8.70;65.00;;;;;;10534897;28;20265;-82
2021/04/16 18:14:22;;;;;;;4.70;4.30;;;8.70;64.80;;;;;;10510900;28;20204;-82
2021/04/16 18:19:25;;;;;;;4.40;4.10;;;8.60;64.60;;;;;;10526400;28;20491;-82
2021/04/16 18:24:33;;;;;;;4.27;3.87;;;8.60;65.30;;;;;;10523232;28;20236;-82
2021/04/16 18:29:36;;;;;;;4.20;3.90;;;8.60;64.90;;;;;;10521456;28;20220;-82
2021/04/16 18:34:38;;;;;;;4.50;4.20;;;8.60;65.30;;;;;;10544892;28;20682;-82
2021/04/16 18:39:45;;;;;;;4.17;3.87;;;8.60;66.20;;;;;;10493227;28;20247;-82
2021/04/16 18:44:52;;;;;;;4.80;4.50;;;8.50;65.80;;;;;;10515884;28;20196;-82
2021/04/16 18:49:55;;;;;;;5.03;4.63;;;8.50;65.90;;;;;;10509939;28;20239;-82
2021/04/16 18:55:02;;;;;;;4.90;4.50;;;8.50;65.70;;;;;;10510735;28;20207;-82
2021/04/16 19:00:10;;;;;;;4.50;4.20;;;8.40;65.70;;;;;;10490284;28;20220;-83
2021/04/16 19:05:13;;;;;;;4.70;4.40;;;8.40;66.60;;;;;;10508868;28;20227;-83
2021/04/16 19:10:17;;;;;;;4.60;4.30;;;8.40;67.50;;;;;;10539587;28;20295;-82
2021/04/16 19:15:23;;;;;;;4.50;4.20;;;8.40;67.30;;;;;;10519644;28;20196;-82
2021/04/16 19:20:27;;;;;;;4.30;4.00;;;8.40;67.30;;;;;;10510173;28;20216;-82
2021/04/16 19:25:33;;;;;;;4.53;4.20;;;8.40;66.80;;;;;;10507145;28;20239;-83
2021/04/16 19:30:40;;;;;;;4.30;3.90;;;8.30;67.20;;;;;;10545678;28;20196;-82
2021/04/16 19:35:45;;;;;;;4.40;4.10;;;8.30;68.70;;;;;;10513424;28;20698;-82
2021/04/16 19:40:51;;;;;;;4.50;4.20;;;8.30;67.80;;;;;;10542900;28;20223;-83
2021/04/16 19:45:55;;;;;;;5.27;4.77;;;8.30;68.20;;;;;;10549539;28;20223;-82
2021/04/16 20:18:05;;;;;;;5.70;5.30;;;8.20;68.50;;;;;;10542268;28;20647;-82
2021/04/16 20:23:08;;;;;;;5.17;4.77;;;8.20;68.70;;;;;;10530497;28;20241;-82
2021/04/16 20:28:12;;;;;;;4.90;4.60;;;8.10;69.00;;;;;;10560965;28;20227;-83
2021/04/16 20:33:19;;;;;;;5.70;5.30;;;8.10;69.70;;;;;;10509675;28;20193;-82
2021/04/16 20:38:22;;;;;;;5.20;4.80;;;8.00;69.50;;;;;;10507273;28;20231;-83
2021/04/16 20:43:26;;;;;;;5.77;5.27;;;8.00;70.40;;;;;;10490851;28;20265;-83
2021/04/16 20:48:39;;;;;;;5.13;4.73;;;7.90;70.30;;;;;;10522224;28;20212;-83
2021/04/16 20:53:40;;;;;;;6.63;6.07;;;7.90;70.30;;;;;;10538941;28;20189;-83
2021/04/16 20:58:43;;;;;;;5.60;5.10;;;7.80;70.90;;;;;;10535600;28;20243;-83
2021/04/16 21:03:53;;;;;;;8.93;8.10;;;7.80;71.10;;;;;;10517116;28;20586;-83
2021/04/16 21:08:57;;;;;;;5.60;5.20;;;7.80;71.40;;;;;;10533998;28;20218;-82
2021/04/16 21:14:00;;;;;;;6.87;6.17;;;7.80;71.60;;;;;;10513468;28;20241;-82
2021/04/16 21:19:14;;;;;;;5.90;5.40;;;7.80;71.30;;;;;;10507082;28;20690;-82
2021/04/16 21:24:18;;;;;;;6.27;5.77;;;7.70;71.20;;;;;;10504547;28;20192;-82
2021/04/16 21:29:21;;;;;;;5.77;5.27;;;7.50;71.60;;;;;;10521301;28;20261;-82
2021/04/16 21:34:29;;;;;;;5.97;5.50;;;7.50;72.20;;;;;;10523946;28;20653;-82
2021/04/16 21:39:33;;;;;;;6.47;5.87;;;7.40;72.10;;;;;;10525494;28;20212;-83
2021/04/16 21:44:36;;;;;;;6.43;5.93;;;7.40;72.70;;;;;;10530441;28;20258;-82
2021/04/16 21:49:43;;;;;;;6.63;5.90;;;7.30;73.50;;;;;;10525361;28;20209;-82
2021/04/16 21:54:45;;;;;;;6.07;5.57;;;7.30;72.90;;;;;;10523126;28;20622;-82
2021/04/16 21:59:47;;;;;;;6.60;6.10;;;7.30;73.30;;;;;;10522193;28;20251;-82
2021/04/16 22:04:54;;;;;;;7.10;6.50;;;7.30;73.40;;;;;;10510049;28;20196;-82
2021/04/16 22:10:02;;;;;;;6.10;5.70;;;7.30;73.10;;;;;;10528739;28;20200;-83
2021/04/16 22:15:16;;;;;;;7.37;6.77;;;7.30;73.30;;;;;;10529410;28;20193;-82
2021/04/16 22:20:21;;;;;;;8.03;7.43;;;7.30;73.60;;;;;;10525845;28;20208;-82
2021/04/16 22:25:26;;;;;;;7.00;6.50;;;7.30;73.50;;;;;;10529280;28;20598;-82
2021/04/16 22:30:32;;;;;;;7.33;6.73;;;7.20;73.20;;;;;;10522674;28;20192;-82
2021/04/16 22:35:38;;;;;;;7.00;6.50;;;7.20;73.60;;;;;;10524629;28;20358;-82
2021/04/16 22:40:40;;;;;;;6.83;6.30;;;7.10;73.40;;;;;;10514868;28;20209;-82
2021/04/16 22:45:43;;;;;;;8.23;7.53;;;7.10;73.60;;;;;;10518436;28;20220;-82
2021/04/16 22:50:47;;;;;;;7.40;6.80;;;7.00;73.90;;;;;;10551003;28;20267;-81
2021/04/16 22:55:49;;;;;;;7.70;7.00;;;7.00;74.20;;;;;;10532823;28;20260;-81
2021/04/16 23:00:53;;;;;;;8.30;7.50;;;7.00;75.10;;;;;;10518485;28;20788;-82
2021/04/16 23:05:59;;;;;;;7.53;6.83;;;7.00;74.50;;;;;;10494273;28;20224;-82
2021/04/16 23:11:03;;;;;;;8.47;7.67;;;7.00;74.70;;;;;;10529283;28;20193;-82
2021/04/16 23:16:08;;;;;;;8.70;7.80;;;6.90;75.20;;;;;;10531503;28;20588;-82
2021/04/16 23:21:14;;;;;;;7.50;6.90;;;6.80;75.40;;;;;;10554521;28;20219;-81
2021/04/16 23:26:27;;;;;;;7.30;6.70;;;6.80;75.50;;;;;;10557253;28;20219;-81
2021/04/16 23:31:32;;;;;;;8.67;7.97;;;6.80;75.60;;;;;;10535625;28;20203;-82
2021/04/16 23:36:57;;;;;;;8.70;8.00;;;6.80;75.90;;;;;;10539406;28;20216;-82
2021/04/16 23:42:01;;;;;;;9.70;8.90;;;6.70;76.00;;;;;;10527538;28;20653;-82
2021/04/16 23:47:05;;;;;;;8.67;7.83;;;6.60;76.10;;;;;;10508841;28;20204;-83
2021/04/16 23:52:10;;;;;;;8.47;7.77;;;6.50;76.50;;;;;;10540841;28;20196;-82
2021/04/16 23:57:12;;;;;;;8.93;8.17;;;6.50;76.70;;;;;;10534676;28;20222;-82
